sensor_id;sensor_type;location;lat;lon;timestamp;P1;durP1;ratioP1;P2;durP2;ratioP2
3991;SDS011;2010;48.194;16.394;2023-03-23T00:00:52;13.93;;;8.80;;
3991;SDS011;2010;48.194;16.394;2023-03-23T00:03:21;9.10;;;7.20;;
3991;SDS011;2010;48.194;16.394;2023-03-23T00:05:50;10.50;;;7.60;;
3991;SDS011;2010;48.194;16.394;2023-03-23T00:08:41;13.90;;;8.13;;
3991;SDS011;2010;48.194;16.394;2023-03-23T00:11:12;8.33;;;7.00;;
3991;SDS011;2010;48.194;16.394;2023-03-23T00:13:52;9.10;;;7.90;;
3991;SDS011;2010;48.194;16.394;2023-03-23T00:16:24;8.93;;;6.87;;
3991;SDS011;2010;48.194;16.394;2023-03-23T00:18:59;8.80;;;7.73;;
3991;SDS011;2010;48.194;16.394;2023-03-23T00:21:29;10.00;;;7.30;;
3991;SDS011;2010;48.194;16.394;2023-03-23T00:24:20;11.97;;;8.90;;
3991;SDS011;2010;48.194;16.394;2023-03-23T00:26:50;10.30;;;7.33;;
3991;SDS011;2010;48.194;16.394;2023-03-23T00:29:25;10.70;;;8.20;;
3991;SDS011;2010;48.194;16.394;2023-03-23T00:31:55;11.40;;;8.00;;
3991;SDS011;2010;48.194;16.394;2023-03-23T00:34:24;13.03;;;7.50;;
3991;SDS011;2010;48.194;16.394;2023-03-23T00:36:59;13.43;;;7.77;;
3991;SDS011;2010;48.194;16.394;2023-03-23T00:39:30;8.43;;;7.53;;
3991;SDS011;2010;48.194;16.394;2023-03-23T00:42:04;10.80;;;8.07;;
3991;SDS011;2010;48.194;16.394;2023-03-23T00:44:35;15.23;;;8.73;;
3991;SDS011;2010;48.194;16.394;2023-03-23T00:47:05;11.23;;;7.80;;
3991;SDS011;2010;48.194;16.394;2023-03-23T00:49:38;15.47;;;9.87;;
3991;SDS011;2010;48.194;16.394;2023-03-23T00:52:09;12.73;;;7.87;;
3991;SDS011;2010;48.194;16.394;2023-03-23T00:54:44;10.80;;;7.73;;
3991;SDS011;2010;48.194;16.394;2023-03-23T00:57:16;11.63;;;8.93;;
3991;SDS011;2010;48.194;16.394;2023-03-23T00:59:43;12.03;;;8.13;;
3991;SDS011;2010;48.194;16.394;2023-03-23T01:02:12;11.20;;;7.97;;
3991;SDS011;2010;48.194;16.394;2023-03-23T01:04:51;9.90;;;7.47;;
3991;SDS011;2010;48.194;16.394;2023-03-23T01:07:29;16.93;;;8.80;;
3991;SDS011;2010;48.194;16.394;2023-03-23T01:10:12;12.10;;;7.70;;
3991;SDS011;2010;48.194;16.394;2023-03-23T01:12:51;10.67;;;7.10;;
3991;SDS011;2010;48.194;16.394;2023-03-23T01:15:21;11.40;;;8.30;;
3991;SDS011;2010;48.194;16.394;2023-03-23T01:17:54;16.00;;;8.87;;
3991;SDS011;2010;48.194;16.394;2023-03-23T01:20:25;10.50;;;7.77;;
3991;SDS011;2010;48.194;16.394;2023-03-23T01:22:58;14.47;;;8.43;;
3991;SDS011;2010;48.194;16.394;2023-03-23T01:25:36;11.00;;;8.07;;
3991;SDS011;2010;48.194;16.394;2023-03-23T01:28:03;15.03;;;8.40;;
3991;SDS011;2010;48.194;16.394;2023-03-23T01:30:32;14.87;;;8.77;;
3991;SDS011;2010;48.194;16.394;2023-03-23T01:33:00;11.23;;;8.10;;
3991;SDS011;2010;48.194;16.394;2023-03-23T01:35:31;14.83;;;8.03;;
3991;SDS011;2010;48.194;16.394;2023-03-23T01:37:59;11.27;;;7.53;;
3991;SDS011;2010;48.194;16.394;2023-03-23T01:40:29;13.13;;;7.87;;
3991;SDS011;2010;48.194;16.394;2023-03-23T01:42:59;11.63;;;8.00;;
3991;SDS011;2010;48.194;16.394;2023-03-23T01:45:30;9.90;;;7.60;;
3991;SDS011;2010;48.194;16.394;2023-03-23T01:48:07;11.00;;;8.03;;
3991;SDS011;2010;48.194;16.394;2023-03-23T01:50:40;8.77;;;7.93;;
3991;SDS011;2010;48.194;16.394;2023-03-23T01:53:34;10.43;;;8.30;;
3991;SDS011;2010;48.194;16.394;2023-03-23T01:56:07;10.13;;;8.60;;
3991;SDS011;2010;48.194;16.394;2023-03-23T01:58:42;14.73;;;7.73;;
3991;SDS011;2010;48.194;16.394;2023-03-23T02:01:10;11.77;;;7.90;;
3991;SDS011;2010;48.194;16.394;2023-03-23T02:03:48;9.40;;;7.13;;
3991;SDS011;2010;48.194;16.394;2023-03-23T02:06:17;12.30;;;8.70;;
3991;SDS011;2010;48.194;16.394;2023-03-23T02:09:14;19.73;;;8.63;;
3991;SDS011;2010;48.194;16.394;2023-03-23T02:11:51;12.20;;;8.20;;
3991;SDS011;2010;48.194;16.394;2023-03-23T02:14:23;15.27;;;8.30;;
3991;SDS011;2010;48.194;16.394;2023-03-23T02:16:54;13.30;;;8.90;;
3991;SDS011;2010;48.194;16.394;2023-03-23T02:19:40;12.20;;;8.60;;
3991;SDS011;2010;48.194;16.394;2023-03-23T02:22:24;18.00;;;8.17;;
3991;SDS011;2010;48.194;16.394;2023-03-23T02:25:14;15.27;;;8.00;;
3991;SDS011;2010;48.194;16.394;2023-03-23T02:28:26;14.10;;;7.70;;
3991;SDS011;2010;48.194;16.394;2023-03-23T02:34:26;13.67;;;7.50;;
3991;SDS011;2010;48.194;16.394;2023-03-23T02:36:56;10.90;;;7.07;;
3991;SDS011;2010;48.194;16.394;2023-03-23T02:39:29;9.13;;;7.47;;
3991;SDS011;2010;48.194;16.394;2023-03-23T02:42:01;11.63;;;7.20;;
3991;SDS011;2010;48.194;16.394;2023-03-23T02:44:32;10.30;;;7.80;;
3991;SDS011;2010;48.194;16.394;2023-03-23T02:47:02;15.30;;;8.70;;
3991;SDS011;2010;48.194;16.394;2023-03-23T02:49:36;13.17;;;8.60;;
3991;SDS011;2010;48.194;16.394;2023-03-23T02:52:14;10.03;;;8.07;;
3991;SDS011;2010;48.194;16.394;2023-03-23T02:54:50;8.63;;;7.73;;
3991;SDS011;2010;48.194;16.394;2023-03-23T02:57:26;9.53;;;7.90;;
3991;SDS011;2010;48.194;16.394;2023-03-23T03:00:00;13.00;;;8.87;;
3991;SDS011;2010;48.194;16.394;2023-03-23T03:02:33;8.53;;;7.63;;
3991;SDS011;2010;48.194;16.394;2023-03-23T03:05:07;10.90;;;8.80;;
3991;SDS011;2010;48.194;16.394;2023-03-23T03:10:34;13.03;;;8.50;;
3991;SDS011;2010;48.194;16.394;2023-03-23T03:13:07;11.33;;;8.37;;
3991;SDS011;2010;48.194;16.394;2023-03-23T03:15:40;12.37;;;8.10;;
3991;SDS011;2010;48.194;16.394;2023-03-23T03:18:15;11.23;;;8.07;;
3991;SDS011;2010;48.194;16.394;2023-03-23T03:20:49;14.30;;;8.40;;
3991;SDS011;2010;48.194;16.394;2023-03-23T03:23:23;13.20;;;8.60;;
3991;SDS011;2010;48.194;16.394;2023-03-23T03:25:56;9.33;;;8.30;;
3991;SDS011;2010;48.194;16.394;2023-03-23T03:28:48;10.87;;;9.20;;
3991;SDS011;2010;48.194;16.394;2023-03-23T03:31:21;13.87;;;8.80;;
3991;SDS011;2010;48.194;16.394;2023-03-23T03:37:03;10.30;;;8.97;;
3991;SDS011;2010;48.194;16.394;2023-03-23T03:39:40;12.73;;;8.50;;
3991;SDS011;2010;48.194;16.394;2023-03-23T03:42:11;10.40;;;8.47;;
3991;SDS011;2010;48.194;16.394;2023-03-23T03:44:39;10.00;;;8.97;;
3991;SDS011;2010;48.194;16.394;2023-03-23T03:47:07;13.10;;;9.37;;
3991;SDS011;2010;48.194;16.394;2023-03-23T03:49:37;8.90;;;8.00;;
3991;SDS011;2010;48.194;16.394;2023-03-23T03:52:10;10.57;;;9.47;;
3991;SDS011;2010;48.194;16.394;2023-03-23T03:54:43;10.73;;;9.60;;
3991;SDS011;2010;48.194;16.394;2023-03-23T03:57:12;11.90;;;8.97;;
3991;SDS011;2010;48.194;16.394;2023-03-23T04:00:00;10.23;;;8.43;;
3991;SDS011;2010;48.194;16.394;2023-03-23T04:02:41;13.27;;;8.20;;
3991;SDS011;2010;48.194;16.394;2023-03-23T04:05:17;11.23;;;8.70;;
3991;SDS011;2010;48.194;16.394;2023-03-23T04:07:49;13.60;;;9.50;;
3991;SDS011;2010;48.194;16.394;2023-03-23T04:10:20;15.77;;;10.57;;
3991;SDS011;2010;48.194;16.394;2023-03-23T04:12:53;13.37;;;9.57;;
3991;SDS011;2010;48.194;16.394;2023-03-23T04:15:53;18.03;;;9.90;;
3991;SDS011;2010;48.194;16.394;2023-03-23T04:18:24;10.53;;;8.83;;
3991;SDS011;2010;48.194;16.394;2023-03-23T04:20:52;13.87;;;10.27;;
3991;SDS011;2010;48.194;16.394;2023-03-23T04:23:28;19.40;;;9.60;;
3991;SDS011;2010;48.194;16.394;2023-03-23T04:26:03;13.50;;;9.20;;
3991;SDS011;2010;48.194;16.394;2023-03-23T04:28:48;12.20;;;9.57;;
3991;SDS011;2010;48.194;16.394;2023-03-23T04:31:50;12.57;;;9.90;;
3991;SDS011;2010;48.194;16.394;2023-03-23T04:34:39;13.47;;;10.07;;
3991;SDS011;2010;48.194;16.394;2023-03-23T04:37:12;10.27;;;9.27;;
3991;SDS011;2010;48.194;16.394;2023-03-23T04:39:56;16.30;;;10.70;;
3991;SDS011;2010;48.194;16.394;2023-03-23T04:42:33;16.40;;;10.17;;
3991;SDS011;2010;48.194;16.394;2023-03-23T04:45:23;15.13;;;11.07;;
3991;SDS011;2010;48.194;16.394;2023-03-23T04:47:56;11.67;;;9.33;;
3991;SDS011;2010;48.194;16.394;2023-03-23T04:50:44;17.10;;;9.90;;
3991;SDS011;2010;48.194;16.394;2023-03-23T04:53:24;11.73;;;9.87;;
3991;SDS011;2010;48.194;16.394;2023-03-23T04:55:57;16.17;;;9.43;;
3991;SDS011;2010;48.194;16.394;2023-03-23T04:58:31;19.50;;;9.93;;
3991;SDS011;2010;48.194;16.394;2023-03-23T05:01:29;10.00;;;8.90;;
3991;SDS011;2010;48.194;16.394;2023-03-23T05:04:20;15.03;;;8.50;;
3991;SDS011;2010;48.194;16.394;2023-03-23T05:07:02;13.73;;;9.20;;
3991;SDS011;2010;48.194;16.394;2023-03-23T05:09:46;13.57;;;10.07;;
3991;SDS011;2010;48.194;16.394;2023-03-23T05:12:34;11.60;;;9.37;;
3991;SDS011;2010;48.194;16.394;2023-03-23T05:15:07;15.53;;;9.60;;
3991;SDS011;2010;48.194;16.394;2023-03-23T05:17:42;14.70;;;10.33;;
3991;SDS011;2010;48.194;16.394;2023-03-23T05:20:19;19.63;;;10.47;;
3991;SDS011;2010;48.194;16.394;2023-03-23T05:22:50;15.70;;;10.00;;
3991;SDS011;2010;48.194;16.394;2023-03-23T05:25:28;13.40;;;9.77;;
3991;SDS011;2010;48.194;16.394;2023-03-23T05:28:08;16.90;;;10.40;;
3991;SDS011;2010;48.194;16.394;2023-03-23T05:31:01;12.27;;;9.47;;
3991;SDS011;2010;48.194;16.394;2023-03-23T05:33:33;14.50;;;9.40;;
3991;SDS011;2010;48.194;16.394;2023-03-23T05:36:23;15.90;;;10.20;;
3991;SDS011;2010;48.194;16.394;2023-03-23T05:39:24;14.33;;;10.33;;
3991;SDS011;2010;48.194;16.394;2023-03-23T05:42:21;18.50;;;10.60;;
3991;SDS011;2010;48.194;16.394;2023-03-23T05:45:05;20.33;;;9.60;;
3991;SDS011;2010;48.194;16.394;2023-03-23T05:47:35;14.17;;;9.80;;
3991;SDS011;2010;48.194;16.394;2023-03-23T05:50:09;19.30;;;10.27;;
3991;SDS011;2010;48.194;16.394;2023-03-23T05:52:43;11.90;;;9.47;;
3991;SDS011;2010;48.194;16.394;2023-03-23T05:55:16;10.80;;;9.47;;
3991;SDS011;2010;48.194;16.394;2023-03-23T05:58:03;10.70;;;9.10;;
3991;SDS011;2010;48.194;16.394;2023-03-23T06:00:47;16.97;;;9.17;;
3991;SDS011;2010;48.194;16.394;2023-03-23T06:03:26;14.23;;;9.40;;
3991;SDS011;2010;48.194;16.394;2023-03-23T06:06:21;14.03;;;9.30;;
3991;SDS011;2010;48.194;16.394;2023-03-23T06:08:53;15.23;;;9.50;;
3991;SDS011;2010;48.194;16.394;2023-03-23T06:11:35;13.67;;;9.30;;
3991;SDS011;2010;48.194;16.394;2023-03-23T06:14:23;14.57;;;10.83;;
3991;SDS011;2010;48.194;16.394;2023-03-23T06:16:53;14.97;;;9.10;;
3991;SDS011;2010;48.194;16.394;2023-03-23T06:19:21;13.70;;;9.00;;
3991;SDS011;2010;48.194;16.394;2023-03-23T06:22:10;15.30;;;9.33;;
3991;SDS011;2010;48.194;16.394;2023-03-23T06:24:59;12.40;;;9.33;;
3991;SDS011;2010;48.194;16.394;2023-03-23T06:27:37;15.03;;;8.60;;
3991;SDS011;2010;48.194;16.394;2023-03-23T06:30:15;13.40;;;8.43;;
3991;SDS011;2010;48.194;16.394;2023-03-23T06:33:01;11.07;;;9.17;;
3991;SDS011;2010;48.194;16.394;2023-03-23T06:35:50;12.40;;;7.60;;
3991;SDS011;2010;48.194;16.394;2023-03-23T06:38:47;10.67;;;7.83;;
3991;SDS011;2010;48.194;16.394;2023-03-23T06:41:20;12.70;;;9.20;;
3991;SDS011;2010;48.194;16.394;2023-03-23T06:43:57;10.43;;;8.20;;
3991;SDS011;2010;48.194;16.394;2023-03-23T06:46:29;10.60;;;7.70;;
3991;SDS011;2010;48.194;16.394;2023-03-23T06:49:19;12.10;;;7.27;;
3991;SDS011;2010;48.194;16.394;2023-03-23T06:51:56;11.80;;;9.17;;
3991;SDS011;2010;48.194;16.394;2023-03-23T06:54:27;14.00;;;9.57;;
3991;SDS011;2010;48.194;16.394;2023-03-23T06:57:05;16.03;;;9.37;;
3991;SDS011;2010;48.194;16.394;2023-03-23T06:59:32;10.70;;;8.70;;
3991;SDS011;2010;48.194;16.394;2023-03-23T07:02:01;10.43;;;8.90;;
3991;SDS011;2010;48.194;16.394;2023-03-23T07:04:45;17.03;;;8.80;;
3991;SDS011;2010;48.194;16.394;2023-03-23T07:07:21;14.83;;;9.47;;
3991;SDS011;2010;48.194;16.394;2023-03-23T07:10:08;11.30;;;9.30;;
3991;SDS011;2010;48.194;16.394;2023-03-23T07:12:39;10.87;;;9.13;;
3991;SDS011;2010;48.194;16.394;2023-03-23T07:15:11;14.90;;;8.97;;
3991;SDS011;2010;48.194;16.394;2023-03-23T07:17:46;13.27;;;8.67;;
3991;SDS011;2010;48.194;16.394;2023-03-23T07:20:28;14.80;;;9.10;;
3991;SDS011;2010;48.194;16.394;2023-03-23T07:22:57;15.33;;;9.70;;
3991;SDS011;2010;48.194;16.394;2023-03-23T07:25:49;14.53;;;9.40;;
3991;SDS011;2010;48.194;16.394;2023-03-23T07:28:25;16.23;;;9.13;;
3991;SDS011;2010;48.194;16.394;2023-03-23T07:30:58;14.17;;;9.53;;
3991;SDS011;2010;48.194;16.394;2023-03-23T07:33:26;12.73;;;9.27;;
3991;SDS011;2010;48.194;16.394;2023-03-23T07:35:59;11.73;;;8.20;;
3991;SDS011;2010;48.194;16.394;2023-03-23T07:38:29;12.60;;;9.40;;
3991;SDS011;2010;48.194;16.394;2023-03-23T07:40:58;10.43;;;7.70;;
3991;SDS011;2010;48.194;16.394;2023-03-23T07:43:26;12.43;;;8.60;;
3991;SDS011;2010;48.194;16.394;2023-03-23T07:45:54;11.87;;;8.27;;
3991;SDS011;2010;48.194;16.394;2023-03-23T07:48:28;16.37;;;7.30;;
3991;SDS011;2010;48.194;16.394;2023-03-23T07:50:59;8.63;;;7.20;;
3991;SDS011;2010;48.194;16.394;2023-03-23T07:53:31;17.73;;;7.83;;
3991;SDS011;2010;48.194;16.394;2023-03-23T07:56:14;15.03;;;7.37;;
3991;SDS011;2010;48.194;16.394;2023-03-23T07:59:15;9.53;;;6.80;;
3991;SDS011;2010;48.194;16.394;2023-03-23T08:01:44;13.00;;;7.30;;
3991;SDS011;2010;48.194;16.394;2023-03-23T08:04:37;11.93;;;7.70;;
3991;SDS011;2010;48.194;16.394;2023-03-23T08:07:28;7.50;;;6.70;;
3991;SDS011;2010;48.194;16.394;2023-03-23T08:10:10;10.77;;;7.00;;
3991;SDS011;2010;48.194;16.394;2023-03-23T08:13:19;12.33;;;8.10;;
3991;SDS011;2010;48.194;16.394;2023-03-23T08:16:26;13.13;;;9.13;;
3991;SDS011;2010;48.194;16.394;2023-03-23T08:19:07;10.30;;;6.83;;
3991;SDS011;2010;48.194;16.394;2023-03-23T08:21:57;8.93;;;8.03;;
3991;SDS011;2010;48.194;16.394;2023-03-23T08:24:56;10.70;;;8.30;;
3991;SDS011;2010;48.194;16.394;2023-03-23T08:27:58;9.67;;;8.20;;
3991;SDS011;2010;48.194;16.394;2023-03-23T08:30:58;9.30;;;8.40;;
3991;SDS011;2010;48.194;16.394;2023-03-23T08:33:46;10.17;;;7.90;;
3991;SDS011;2010;48.194;16.394;2023-03-23T08:36:33;11.87;;;8.77;;
3991;SDS011;2010;48.194;16.394;2023-03-23T08:39:32;11.93;;;8.67;;
3991;SDS011;2010;48.194;16.394;2023-03-23T08:42:19;10.80;;;8.60;;
3991;SDS011;2010;48.194;16.394;2023-03-23T08:45:27;10.27;;;7.90;;
3991;SDS011;2010;48.194;16.394;2023-03-23T08:48:16;10.60;;;8.53;;
3991;SDS011;2010;48.194;16.394;2023-03-23T08:51:25;10.47;;;8.90;;
3991;SDS011;2010;48.194;16.394;2023-03-23T08:54:16;9.27;;;8.37;;
3991;SDS011;2010;48.194;16.394;2023-03-23T08:57:04;10.53;;;8.67;;
3991;SDS011;2010;48.194;16.394;2023-03-23T08:59:53;9.10;;;7.43;;
3991;SDS011;2010;48.194;16.394;2023-03-23T09:02:46;12.20;;;8.77;;
3991;SDS011;2010;48.194;16.394;2023-03-23T09:05:21;9.33;;;8.30;;
3991;SDS011;2010;48.194;16.394;2023-03-23T09:08:23;13.50;;;8.60;;
3991;SDS011;2010;48.194;16.394;2023-03-23T09:10:52;10.77;;;7.70;;
3991;SDS011;2010;48.194;16.394;2023-03-23T09:13:20;10.17;;;7.70;;
3991;SDS011;2010;48.194;16.394;2023-03-23T09:15:52;12.83;;;7.57;;
3991;SDS011;2010;48.194;16.394;2023-03-23T09:18:20;9.50;;;8.00;;
3991;SDS011;2010;48.194;16.394;2023-03-23T09:20:49;20.00;;;8.63;;
3991;SDS011;2010;48.194;16.394;2023-03-23T09:23:18;13.50;;;9.03;;
3991;SDS011;2010;48.194;16.394;2023-03-23T09:25:46;9.43;;;8.40;;
3991;SDS011;2010;48.194;16.394;2023-03-23T09:28:19;9.70;;;8.57;;
3991;SDS011;2010;48.194;16.394;2023-03-23T09:30:53;11.23;;;7.93;;
3991;SDS011;2010;48.194;16.394;2023-03-23T09:33:25;13.20;;;9.63;;
3991;SDS011;2010;48.194;16.394;2023-03-23T09:36:00;11.50;;;8.43;;
3991;SDS011;2010;48.194;16.394;2023-03-23T09:38:35;13.07;;;9.73;;
3991;SDS011;2010;48.194;16.394;2023-03-23T09:41:04;19.43;;;9.37;;
3991;SDS011;2010;48.194;16.394;2023-03-23T09:43:59;10.73;;;9.20;;
3991;SDS011;2010;48.194;16.394;2023-03-23T09:46:35;9.90;;;8.20;;
3991;SDS011;2010;48.194;16.394;2023-03-23T09:49:33;11.77;;;9.17;;
3991;SDS011;2010;48.194;16.394;2023-03-23T09:52:04;13.00;;;8.90;;
3991;SDS011;2010;48.194;16.394;2023-03-23T09:54:36;10.63;;;9.50;;
3991;SDS011;2010;48.194;16.394;2023-03-23T09:57:11;12.13;;;9.47;;
3991;SDS011;2010;48.194;16.394;2023-03-23T09:59:49;12.70;;;9.60;;
3991;SDS011;2010;48.194;16.394;2023-03-23T10:02:26;14.43;;;10.27;;
3991;SDS011;2010;48.194;16.394;2023-03-23T10:04:56;10.90;;;8.80;;
3991;SDS011;2010;48.194;16.394;2023-03-23T10:07:30;11.73;;;9.90;;
3991;SDS011;2010;48.194;16.394;2023-03-23T10:10:00;15.80;;;10.30;;
3991;SDS011;2010;48.194;16.394;2023-03-23T10:12:44;13.33;;;10.37;;
3991;SDS011;2010;48.194;16.394;2023-03-23T10:15:17;19.50;;;10.67;;
3991;SDS011;2010;48.194;16.394;2023-03-23T10:17:52;16.03;;;10.90;;
3991;SDS011;2010;48.194;16.394;2023-03-23T10:20:32;14.00;;;10.87;;
3991;SDS011;2010;48.194;16.394;2023-03-23T10:23:24;11.97;;;10.70;;
3991;SDS011;2010;48.194;16.394;2023-03-23T10:29:14;14.40;;;10.60;;
3991;SDS011;2010;48.194;16.394;2023-03-23T10:31:47;19.37;;;12.37;;
3991;SDS011;2010;48.194;16.394;2023-03-23T10:34:27;15.60;;;11.00;;
3991;SDS011;2010;48.194;16.394;2023-03-23T10:37:08;14.63;;;11.80;;
3991;SDS011;2010;48.194;16.394;2023-03-23T10:39:47;20.10;;;11.70;;
3991;SDS011;2010;48.194;16.394;2023-03-23T10:42:29;16.07;;;11.30;;
3991;SDS011;2010;48.194;16.394;2023-03-23T10:45:14;11.90;;;10.63;;
3991;SDS011;2010;48.194;16.394;2023-03-23T10:47:46;16.23;;;11.13;;
3991;SDS011;2010;48.194;16.394;2023-03-23T10:50:25;13.77;;;10.30;;
3991;SDS011;2010;48.194;16.394;2023-03-23T10:52:58;12.97;;;10.20;;
3991;SDS011;2010;48.194;16.394;2023-03-23T10:55:38;11.63;;;9.30;;
3991;SDS011;2010;48.194;16.394;2023-03-23T10:58:21;13.03;;;9.97;;
3991;SDS011;2010;48.194;16.394;2023-03-23T11:00:53;16.23;;;10.03;;
3991;SDS011;2010;48.194;16.394;2023-03-23T11:03:42;11.43;;;10.10;;
3991;SDS011;2010;48.194;16.394;2023-03-23T11:06:33;14.13;;;9.60;;
3991;SDS011;2010;48.194;16.394;2023-03-23T11:09:12;11.30;;;10.20;;
3991;SDS011;2010;48.194;16.394;2023-03-23T11:11:56;11.47;;;10.10;;
3991;SDS011;2010;48.194;16.394;2023-03-23T11:14:25;11.03;;;9.33;;
3991;SDS011;2010;48.194;16.394;2023-03-23T11:16:55;11.47;;;9.93;;
3991;SDS011;2010;48.194;16.394;2023-03-23T11:19:24;13.37;;;10.87;;
3991;SDS011;2010;48.194;16.394;2023-03-23T11:22:06;12.20;;;10.00;;
3991;SDS011;2010;48.194;16.394;2023-03-23T11:24:40;12.77;;;9.30;;
3991;SDS011;2010;48.194;16.394;2023-03-23T11:27:13;16.13;;;8.90;;
3991;SDS011;2010;48.194;16.394;2023-03-23T11:29:44;9.47;;;8.17;;
3991;SDS011;2010;48.194;16.394;2023-03-23T11:32:24;13.00;;;9.30;;
3991;SDS011;2010;48.194;16.394;2023-03-23T11:34:54;10.53;;;8.00;;
3991;SDS011;2010;48.194;16.394;2023-03-23T11:37:34;11.10;;;8.77;;
3991;SDS011;2010;48.194;16.394;2023-03-23T11:40:17;12.53;;;8.20;;
3991;SDS011;2010;48.194;16.394;2023-03-23T11:42:49;9.20;;;8.30;;
3991;SDS011;2010;48.194;16.394;2023-03-23T11:45:25;10.70;;;8.20;;
3991;SDS011;2010;48.194;16.394;2023-03-23T11:48:03;15.30;;;8.00;;
3991;SDS011;2010;48.194;16.394;2023-03-23T11:50:49;9.87;;;7.40;;
3991;SDS011;2010;48.194;16.394;2023-03-23T11:53:32;12.57;;;7.40;;
3991;SDS011;2010;48.194;16.394;2023-03-23T11:56:11;15.10;;;7.50;;
3991;SDS011;2010;48.194;16.394;2023-03-23T11:58:58;11.83;;;7.70;;
3991;SDS011;2010;48.194;16.394;2023-03-23T12:01:37;6.83;;;6.00;;
3991;SDS011;2010;48.194;16.394;2023-03-23T12:04:30;8.73;;;6.57;;
3991;SDS011;2010;48.194;16.394;2023-03-23T12:07:06;8.20;;;6.43;;
3991;SDS011;2010;48.194;16.394;2023-03-23T12:09:53;9.40;;;6.60;;
3991;SDS011;2010;48.194;16.394;2023-03-23T12:12:40;7.50;;;5.87;;
3991;SDS011;2010;48.194;16.394;2023-03-23T12:15:14;10.60;;;6.17;;
3991;SDS011;2010;48.194;16.394;2023-03-23T12:17:50;7.70;;;6.23;;
3991;SDS011;2010;48.194;16.394;2023-03-23T12:20:31;9.70;;;7.00;;
3991;SDS011;2010;48.194;16.394;2023-03-23T12:23:14;10.77;;;6.70;;
3991;SDS011;2010;48.194;16.394;2023-03-23T12:26:13;14.53;;;6.90;;
3991;SDS011;2010;48.194;16.394;2023-03-23T12:29:03;11.00;;;6.37;;
3991;SDS011;2010;48.194;16.394;2023-03-23T12:31:54;9.80;;;7.20;;
3991;SDS011;2010;48.194;16.394;2023-03-23T12:34:32;7.60;;;6.33;;
3991;SDS011;2010;48.194;16.394;2023-03-23T12:37:13;10.40;;;7.20;;
3991;SDS011;2010;48.194;16.394;2023-03-23T12:43:13;10.53;;;5.70;;
3991;SDS011;2010;48.194;16.394;2023-03-23T12:45:53;7.23;;;6.50;;
3991;SDS011;2010;48.194;16.394;2023-03-23T12:48:27;8.57;;;6.57;;
3991;SDS011;2010;48.194;16.394;2023-03-23T12:51:12;8.20;;;5.80;;
3991;SDS011;2010;48.194;16.394;2023-03-23T12:53:48;11.50;;;5.33;;
3991;SDS011;2010;48.194;16.394;2023-03-23T12:56:23;9.90;;;5.63;;
3991;SDS011;2010;48.194;16.394;2023-03-23T12:58:56;7.30;;;5.67;;
3991;SDS011;2010;48.194;16.394;2023-03-23T13:01:30;9.47;;;5.20;;
3991;SDS011;2010;48.194;16.394;2023-03-23T13:04:00;5.37;;;4.93;;
3991;SDS011;2010;48.194;16.394;2023-03-23T13:06:33;5.70;;;5.20;;
3991;SDS011;2010;48.194;16.394;2023-03-23T13:09:12;6.83;;;5.20;;
3991;SDS011;2010;48.194;16.394;2023-03-23T13:11:43;6.23;;;5.00;;
3991;SDS011;2010;48.194;16.394;2023-03-23T13:14:29;7.30;;;4.60;;
3991;SDS011;2010;48.194;16.394;2023-03-23T13:17:20;11.60;;;4.47;;
3991;SDS011;2010;48.194;16.394;2023-03-23T13:19:58;7.40;;;4.30;;
3991;SDS011;2010;48.194;16.394;2023-03-23T13:22:39;4.90;;;4.40;;
3991;SDS011;2010;48.194;16.394;2023-03-23T13:25:18;4.83;;;4.43;;
3991;SDS011;2010;48.194;16.394;2023-03-23T13:27:58;5.87;;;4.57;;
3991;SDS011;2010;48.194;16.394;2023-03-23T13:30:29;4.90;;;4.50;;
3991;SDS011;2010;48.194;16.394;2023-03-23T13:33:01;7.03;;;4.43;;
3991;SDS011;2010;48.194;16.394;2023-03-23T13:35:35;4.50;;;4.07;;
3991;SDS011;2010;48.194;16.394;2023-03-23T13:38:11;4.00;;;3.70;;
3991;SDS011;2010;48.194;16.394;2023-03-23T13:40:46;5.43;;;4.30;;
3991;SDS011;2010;48.194;16.394;2023-03-23T13:43:24;5.07;;;4.20;;
3991;SDS011;2010;48.194;16.394;2023-03-23T13:46:10;7.20;;;3.97;;
3991;SDS011;2010;48.194;16.394;2023-03-23T13:49:03;5.70;;;4.03;;
3991;SDS011;2010;48.194;16.394;2023-03-23T13:51:58;5.73;;;4.40;;
3991;SDS011;2010;48.194;16.394;2023-03-23T13:54:39;4.70;;;4.20;;
3991;SDS011;2010;48.194;16.394;2023-03-23T13:57:24;8.80;;;3.63;;
3991;SDS011;2010;48.194;16.394;2023-03-23T14:00:33;4.67;;;3.70;;
3991;SDS011;2010;48.194;16.394;2023-03-23T14:03:23;6.20;;;4.57;;
3991;SDS011;2010;48.194;16.394;2023-03-23T14:06:01;5.87;;;4.60;;
3991;SDS011;2010;48.194;16.394;2023-03-23T14:08:38;7.13;;;4.17;;
3991;SDS011;2010;48.194;16.394;2023-03-23T14:11:13;4.37;;;4.07;;
3991;SDS011;2010;48.194;16.394;2023-03-23T14:13:49;7.67;;;4.10;;
3991;SDS011;2010;48.194;16.394;2023-03-23T14:16:20;4.60;;;4.10;;
3991;SDS011;2010;48.194;16.394;2023-03-23T14:19:04;10.37;;;3.70;;
3991;SDS011;2010;48.194;16.394;2023-03-23T14:21:49;9.73;;;3.60;;
3991;SDS011;2010;48.194;16.394;2023-03-23T14:24:23;8.53;;;3.87;;
3991;SDS011;2010;48.194;16.394;2023-03-23T14:27:09;16.10;;;4.70;;
3991;SDS011;2010;48.194;16.394;2023-03-23T14:29:39;7.07;;;4.20;;
3991;SDS011;2010;48.194;16.394;2023-03-23T14:32:14;4.90;;;4.30;;
3991;SDS011;2010;48.194;16.394;2023-03-23T14:34:49;5.70;;;3.70;;
3991;SDS011;2010;48.194;16.394;2023-03-23T14:37:24;6.83;;;4.80;;
3991;SDS011;2010;48.194;16.394;2023-03-23T14:39:53;8.40;;;4.37;;
3991;SDS011;2010;48.194;16.394;2023-03-23T14:42:25;7.23;;;4.10;;
3991;SDS011;2010;48.194;16.394;2023-03-23T14:44:55;7.77;;;4.67;;
3991;SDS011;2010;48.194;16.394;2023-03-23T14:47:26;8.00;;;4.50;;
3991;SDS011;2010;48.194;16.394;2023-03-23T14:49:59;5.20;;;3.60;;
3991;SDS011;2010;48.194;16.394;2023-03-23T14:52:33;7.07;;;4.27;;
3991;SDS011;2010;48.194;16.394;2023-03-23T14:55:11;5.17;;;4.17;;
3991;SDS011;2010;48.194;16.394;2023-03-23T14:57:41;7.53;;;3.60;;
3991;SDS011;2010;48.194;16.394;2023-03-23T15:00:12;6.23;;;3.63;;
3991;SDS011;2010;48.194;16.394;2023-03-23T15:02:54;3.83;;;3.53;;
3991;SDS011;2010;48.194;16.394;2023-03-23T15:05:28;4.43;;;4.07;;
3991;SDS011;2010;48.194;16.394;2023-03-23T15:08:03;3.90;;;3.50;;
3991;SDS011;2010;48.194;16.394;2023-03-23T15:10:36;6.17;;;3.90;;
3991;SDS011;2010;48.194;16.394;2023-03-23T15:13:08;3.97;;;3.67;;
3991;SDS011;2010;48.194;16.394;2023-03-23T15:15:39;4.63;;;3.40;;
3991;SDS011;2010;48.194;16.394;2023-03-23T15:18:25;4.27;;;3.40;;
3991;SDS011;2010;48.194;16.394;2023-03-23T15:21:10;4.80;;;4.33;;
3991;SDS011;2010;48.194;16.394;2023-03-23T15:23:47;4.03;;;3.73;;
3991;SDS011;2010;48.194;16.394;2023-03-23T15:26:34;3.80;;;3.50;;
3991;SDS011;2010;48.194;16.394;2023-03-23T15:29:18;4.40;;;3.20;;
3991;SDS011;2010;48.194;16.394;2023-03-23T15:31:52;3.40;;;3.07;;
3991;SDS011;2010;48.194;16.394;2023-03-23T15:34:24;5.40;;;3.80;;
3991;SDS011;2010;48.194;16.394;2023-03-23T15:37:00;4.50;;;3.10;;
3991;SDS011;2010;48.194;16.394;2023-03-23T15:39:29;4.07;;;3.10;;
3991;SDS011;2010;48.194;16.394;2023-03-23T15:42:00;5.03;;;2.87;;
3991;SDS011;2010;48.194;16.394;2023-03-23T15:44:36;3.40;;;3.20;;
3991;SDS011;2010;48.194;16.394;2023-03-23T15:47:16;5.33;;;3.73;;
3991;SDS011;2010;48.194;16.394;2023-03-23T15:49:46;5.63;;;3.50;;
3991;SDS011;2010;48.194;16.394;2023-03-23T15:52:27;4.93;;;3.90;;
3991;SDS011;2010;48.194;16.394;2023-03-23T15:54:58;4.97;;;3.70;;
3991;SDS011;2010;48.194;16.394;2023-03-23T15:57:29;3.60;;;3.40;;
3991;SDS011;2010;48.194;16.394;2023-03-23T15:59:59;4.13;;;3.77;;
3991;SDS011;2010;48.194;16.394;2023-03-23T16:02:41;8.63;;;3.90;;
3991;SDS011;2010;48.194;16.394;2023-03-23T16:05:13;5.20;;;4.20;;
3991;SDS011;2010;48.194;16.394;2023-03-23T16:07:51;4.63;;;4.10;;
3991;SDS011;2010;48.194;16.394;2023-03-23T16:10:23;5.97;;;4.83;;
3991;SDS011;2010;48.194;16.394;2023-03-23T16:12:56;6.33;;;4.47;;